createdAt,value
2019-04-16T00:02:44.618Z,37.57
2019-04-16T00:05:39.315Z,37.72
2019-04-16T00:08:27.262Z,37.77
2019-04-16T00:11:03.402Z,37.86
2019-04-16T00:13:47.642Z,37.94
2019-04-16T00:16:18.902Z,38.03
2019-04-16T00:18:57.206Z,38.08
2019-04-16T00:21:42.860Z,38.21
2019-04-16T00:24:27.789Z,38.30
2019-04-16T00:27:00.013Z,38.45
2019-04-16T00:29:32.939Z,38.44
2019-04-16T00:32:10.318Z,38.53
2019-04-16T00:34:44.537Z,38.61
2019-04-16T00:37:14.525Z,38.64
2019-04-16T00:39:45.769Z,38.70
2019-04-16T00:42:16.924Z,38.75
2019-04-16T00:44:48.219Z,38.76
2019-04-16T00:47:19.381Z,38.83
2019-04-16T00:49:50.686Z,38.90
2019-04-16T00:52:21.877Z,38.93
2019-04-16T00:54:53.115Z,38.99
2019-04-16T00:57:24.410Z,39.04
2019-04-16T00:59:56.757Z,39.09
2019-04-16T01:02:28.175Z,39.13
2019-04-16T01:04:59.313Z,39.21
2019-04-16T01:07:30.489Z,39.23
2019-04-16T01:10:01.935Z,39.28
2019-04-16T01:12:33.212Z,39.35
2019-04-16T01:15:04.478Z,39.42
2019-04-16T01:17:36.722Z,39.51
2019-04-16T01:20:11.601Z,39.54
2019-04-16T01:22:41.364Z,39.57
2019-04-16T01:25:12.562Z,39.68
2019-04-16T01:27:48.152Z,39.72
2019-04-16T01:30:30.870Z,39.75
2019-04-16T01:33:14.786Z,39.83
2019-04-16T01:36:04.294Z,39.88
2019-04-16T01:39:13.587Z,39.92
2019-04-16T01:41:30.022Z,39.96
2019-04-16T01:44:01.210Z,40.02
2019-04-16T01:46:33.497Z,40.12
2019-04-16T01:49:09.686Z,40.14
2019-04-16T01:51:37.950Z,40.20
2019-04-16T01:54:09.262Z,40.26
2019-04-16T01:56:40.406Z,40.30
2019-04-16T01:59:13.231Z,40.36
2019-04-16T02:01:44.398Z,40.39
2019-04-16T02:04:19.557Z,40.45
2019-04-16T02:06:48.568Z,40.49
2019-04-16T02:09:22.734Z,40.60
2019-04-16T02:11:52.894Z,40.63
2019-04-16T02:14:24.246Z,40.67
2019-04-16T02:16:55.966Z,40.78
2019-04-16T02:19:32.464Z,40.84
2019-04-16T02:22:00.839Z,40.88
2019-04-16T02:24:32.054Z,40.96
2019-04-16T02:27:03.197Z,41.02
2019-04-16T02:29:34.437Z,41.10
2019-04-16T02:32:05.728Z,41.19
2019-04-16T02:34:36.906Z,41.20
2019-04-16T02:37:08.184Z,41.28
2019-04-16T02:39:48.748Z,41.32
2019-04-16T02:42:12.588Z,41.42
2019-04-16T02:44:48.455Z,41.46
2019-04-16T02:47:17.644Z,41.54
2019-04-16T02:49:48.945Z,41.61
2019-04-16T02:52:37.961Z,41.62
2019-04-16T02:55:26.841Z,41.67
2019-04-16T02:58:07.635Z,41.73
2019-04-16T03:01:02.462Z,41.73
2019-04-16T03:03:41.035Z,41.80
2019-04-16T03:06:12.228Z,41.79
2019-04-16T03:08:43.900Z,41.84
2019-04-16T03:11:17.412Z,41.92
2019-04-16T03:13:47.960Z,41.90
2019-04-16T03:16:53.399Z,41.96
2019-04-16T03:19:29.324Z,42.06
2019-04-16T03:22:02.251Z,42.11
2019-04-16T03:24:33.404Z,42.09
2019-04-16T03:27:05.520Z,42.14
2019-04-16T03:29:36.823Z,42.19
2019-04-16T03:32:12.757Z,42.32
2019-04-16T03:34:40.981Z,42.41
2019-04-16T03:37:12.156Z,42.47
2019-04-16T03:39:44.694Z,42.55
2019-04-16T03:42:16.254Z,42.62
2019-04-16T03:44:47.403Z,42.67
2019-04-16T03:47:19.935Z,42.73
2019-04-16T03:49:51.196Z,42.84
2019-04-16T03:52:22.440Z,42.97
2019-04-16T03:54:54.004Z,42.93
2019-04-16T03:57:26.019Z,42.92
2019-04-16T04:00:00.474Z,43.02
2019-04-16T04:02:30.116Z,43.08
2019-04-16T04:05:04.402Z,43.17
2019-04-16T04:07:34.221Z,43.18
2019-04-16T04:10:05.964Z,43.28
2019-04-16T04:12:37.230Z,43.32
2019-04-16T04:15:09.576Z,43.33
2019-04-16T04:17:40.730Z,43.42
2019-04-16T04:20:14.614Z,43.46
2019-04-16T04:22:45.032Z,43.51
2019-04-16T04:25:16.264Z,43.47
2019-04-16T04:27:47.780Z,43.50
2019-04-16T04:30:20.781Z,43.54
2019-04-16T04:32:51.955Z,43.60
2019-04-16T04:35:23.160Z,43.60
2019-04-16T04:37:54.361Z,43.61
2019-04-16T04:40:25.511Z,43.65
2019-04-16T04:42:57.649Z,43.67
2019-04-16T04:45:30.034Z,43.67
2019-04-16T04:48:01.286Z,43.69
2019-04-16T04:50:35.266Z,43.71
2019-04-16T04:53:05.662Z,43.69
2019-04-16T04:55:37.528Z,43.76
2019-04-16T04:58:08.816Z,43.71
2019-04-16T05:00:40.532Z,43.73
2019-04-16T05:03:22.565Z,43.77
2019-04-16T05:05:56.697Z,43.76
2019-04-16T05:08:29.335Z,43.69
2019-04-16T05:11:02.908Z,43.65
2019-04-16T05:13:33.509Z,43.66
2019-04-16T05:16:07.038Z,43.69
2019-04-16T05:18:41.406Z,43.63
2019-04-16T05:21:10.495Z,43.64
2019-04-16T05:23:41.670Z,43.60
2019-04-16T05:26:12.859Z,43.55
2019-04-16T05:28:45.391Z,43.52
2019-04-16T05:31:16.840Z,43.52
2019-04-16T05:33:49.007Z,43.53
2019-04-16T05:36:21.356Z,43.52
2019-04-16T05:38:55.488Z,43.44
2019-04-16T05:41:25.833Z,43.44
2019-04-16T05:43:58.447Z,43.36
2019-04-16T05:46:29.941Z,43.34
2019-04-16T05:49:01.179Z,43.25
2019-04-16T05:51:32.385Z,43.35
2019-04-16T05:54:15.360Z,43.32
2019-04-16T05:56:52.354Z,43.24
2019-04-16T05:59:23.501Z,43.17
2019-04-16T06:02:03.330Z,43.07
2019-04-16T06:04:36.139Z,43.00
2019-04-16T06:07:07.791Z,42.95
2019-04-16T06:09:41.511Z,43.00
2019-04-16T06:12:11.916Z,42.96
2019-04-16T06:14:49.589Z,42.91
2019-04-16T06:17:38.602Z,42.82
2019-04-16T06:20:22.054Z,42.73
2019-04-16T06:23:14.989Z,42.62
2019-04-16T06:25:53.121Z,42.55
2019-04-16T06:28:48.807Z,42.50
2019-04-16T06:31:41.385Z,42.41
2019-04-16T06:34:32.494Z,42.29
2019-04-16T06:37:12.436Z,42.18
2019-04-16T06:40:08.806Z,42.14
2019-04-16T06:43:07.936Z,42.00
2019-04-16T06:45:57.902Z,41.87
2019-04-16T06:48:35.339Z,41.74
2019-04-16T06:51:37.363Z,41.61
2019-04-16T06:54:33.594Z,41.53
2019-04-16T06:57:29.764Z,41.40
2019-04-16T07:00:18.304Z,41.31
2019-04-16T07:03:13.087Z,41.18
2019-04-16T07:06:03.894Z,41.07
2019-04-16T07:08:52.572Z,40.97
2019-04-16T07:11:24.047Z,40.89
2019-04-16T07:13:55.223Z,40.82
2019-04-16T07:16:28.952Z,40.74
2019-04-16T07:18:59.353Z,40.57
2019-04-16T07:21:30.545Z,40.47
2019-04-16T07:24:01.739Z,40.35
2019-04-16T07:26:32.986Z,40.24
2019-04-16T07:29:18.042Z,40.10
2019-04-16T07:32:03.242Z,39.99
2019-04-16T07:34:41.606Z,39.85
2019-04-16T07:37:33.094Z,39.70
2019-04-16T07:40:23.931Z,39.54
2019-04-16T07:43:16.070Z,39.41
2019-04-16T07:46:03.901Z,39.30
2019-04-16T07:48:57.028Z,39.17
2019-04-16T07:51:36.040Z,39.05
2019-04-16T07:54:29.754Z,38.94
2019-04-16T07:57:00.944Z,38.74
2019-04-16T07:59:32.928Z,38.66
2019-04-16T08:02:04.403Z,38.64
2019-04-16T08:04:36.399Z,38.53
2019-04-16T08:07:08.016Z,38.36
2019-04-16T08:09:39.211Z,38.25
2019-04-16T08:12:22.289Z,38.14
2019-04-16T08:14:43.321Z,38.09
2019-04-16T08:17:14.555Z,37.99
2019-04-16T08:19:49.033Z,37.88
2019-04-16T08:22:18.717Z,37.79
2019-04-16T08:24:59.407Z,37.68
2019-04-16T08:27:27.636Z,37.60
2019-04-16T08:30:02.365Z,37.48
2019-04-16T08:32:31.806Z,37.35
2019-04-16T08:35:02.974Z,37.17
2019-04-16T08:37:48.041Z,37.03
2019-04-16T08:40:08.855Z,36.91
2019-04-16T08:42:44.632Z,36.77
2019-04-16T08:45:13.104Z,36.70
2019-04-16T08:47:45.231Z,36.53
2019-04-16T08:50:17.324Z,36.38
2019-04-16T08:52:48.491Z,36.23
2019-04-16T08:55:20.495Z,36.03
2019-04-16T08:57:52.643Z,35.85
2019-04-16T09:00:23.893Z,35.68
2019-04-16T09:02:57.565Z,35.54
2019-04-16T09:05:28.088Z,35.42
2019-04-16T09:08:13.326Z,35.26
2019-04-16T09:10:40.467Z,35.13
2019-04-16T09:13:15.272Z,34.91
2019-04-16T09:15:46.739Z,34.78
2019-04-16T09:18:49.007Z,34.65
2019-04-16T09:21:20.226Z,34.52
2019-04-16T09:24:09.922Z,34.36
2019-04-16T09:26:52.560Z,34.32
2019-04-16T09:29:41.530Z,34.10
2019-04-16T09:32:31.360Z,33.98
2019-04-16T09:35:18.550Z,33.84
2019-04-16T09:38:09.401Z,33.66
2019-04-16T09:40:53.452Z,33.36
2019-04-16T09:43:25.491Z,33.39
2019-04-16T09:46:09.615Z,33.24
2019-04-16T09:48:34.371Z,33.01
2019-04-16T09:51:02.516Z,32.93
2019-04-16T09:53:37.477Z,32.79
2019-04-16T09:56:28.359Z,32.65
2019-04-16T09:58:59.432Z,32.56
2019-04-16T10:01:36.569Z,32.47
2019-04-16T10:04:09.450Z,32.32
2019-04-16T10:06:40.643Z,32.24
2019-04-16T10:09:12.726Z,32.29
2019-04-16T10:11:44.090Z,32.19
2019-04-16T10:14:15.509Z,32.04
2019-04-16T10:16:46.712Z,31.97
2019-04-16T10:19:21.106Z,31.92
2019-04-16T10:21:54.337Z,31.79
2019-04-16T10:24:51.810Z,31.73
2019-04-16T10:27:35.236Z,31.63
2019-04-16T10:30:25.256Z,31.62
2019-04-16T10:32:56.399Z,31.51
2019-04-16T10:35:27.730Z,31.48
2019-04-16T10:38:03.053Z,31.43
2019-04-16T10:40:38.042Z,31.38
2019-04-16T10:43:44.392Z,31.27
2019-04-16T10:46:13.702Z,31.17
2019-04-16T10:49:16.121Z,31.14
2019-04-16T10:52:09.054Z,31.03
2019-04-16T10:55:12.129Z,30.93
2019-04-16T10:58:18.430Z,30.89
2019-04-16T11:00:57.661Z,30.75
2019-04-16T11:03:39.909Z,30.70
2019-04-16T11:06:15.156Z,30.75
2019-04-16T11:08:46.398Z,30.69
2019-04-16T11:11:17.615Z,30.68
2019-04-16T11:13:59.708Z,30.59
2019-04-16T11:16:24.150Z,30.46
2019-04-16T11:18:55.491Z,30.46
2019-04-16T11:21:27.831Z,30.39
2019-04-16T11:23:58.991Z,30.27
2019-04-16T11:26:30.344Z,30.19
2019-04-16T11:29:01.461Z,30.10
2019-04-16T11:31:32.708Z,29.97
2019-04-16T11:34:06.347Z,29.87
2019-04-16T11:36:38.632Z,29.83
2019-04-16T11:39:10.861Z,29.75
2019-04-16T11:41:42.084Z,29.77
2019-04-16T11:44:16.802Z,29.73
2019-04-16T11:46:46.284Z,29.69
2019-04-16T11:49:17.514Z,29.49
2019-04-16T11:51:48.798Z,29.43
2019-04-16T11:54:20.107Z,29.26
2019-04-16T11:56:51.477Z,29.15
2019-04-16T11:59:22.570Z,29.02
2019-04-16T12:02:12.736Z,29.00
2019-04-16T12:05:02.961Z,28.91
2019-04-16T12:07:41.440Z,28.84
2019-04-16T12:10:34.794Z,28.64
2019-04-16T12:13:23.808Z,28.59
2019-04-16T12:16:14.103Z,28.57
2019-04-16T12:19:10.444Z,28.39
2019-04-16T12:22:13.120Z,28.20
2019-04-16T12:25:06.243Z,27.98
2019-04-16T12:28:12.738Z,27.75
2019-04-16T12:30:56.579Z,27.55
2019-04-16T12:33:51.054Z,27.25
2019-04-16T12:36:47.122Z,26.93
2019-04-16T12:39:31.529Z,26.73
2019-04-16T12:42:14.779Z,26.08
2019-04-16T12:44:57.518Z,25.11
2019-04-16T12:47:36.283Z,23.79
2019-04-16T12:50:33.138Z,22.46
2019-04-16T12:53:10.239Z,21.31
2019-04-16T12:56:15.796Z,20.04
2019-04-16T12:59:15.275Z,18.95
2019-04-16T13:02:13.409Z,17.96
2019-04-16T13:04:56.365Z,17.42
2019-04-16T13:07:32.852Z,16.87
2019-04-16T13:10:17.095Z,16.16
2019-04-16T13:12:59.741Z,15.54
2019-04-16T13:15:53.016Z,14.88
2019-04-16T13:18:40.719Z,14.23
2019-04-16T13:21:18.090Z,13.69
2019-04-16T13:24:14.338Z,13.09
2019-04-16T13:27:07.660Z,12.72
2019-04-16T13:29:38.806Z,12.29
2019-04-16T13:32:10.193Z,12.00
2019-04-16T13:34:41.452Z,11.60
2019-04-16T13:37:12.860Z,11.25
2019-04-16T13:39:59.418Z,10.84
2019-04-16T13:42:30.091Z,10.71
2019-04-16T13:45:17.862Z,10.48
2019-04-16T13:47:54.623Z,10.27
2019-04-16T13:50:47.554Z,10.04
2019-04-16T13:53:47.056Z,9.84
2019-04-16T13:56:27.822Z,9.61
2019-04-16T13:59:30.257Z,9.39
2019-04-16T14:02:06.746Z,9.16
2019-04-16T14:04:38.156Z,9.05
2019-04-16T14:07:09.361Z,8.93
2019-04-16T14:09:44.098Z,8.84
2019-04-16T14:12:13.628Z,8.75
2019-04-16T14:14:46.669Z,8.73
2019-04-16T14:17:20.818Z,8.68
2019-04-16T14:19:52.031Z,8.62
2019-04-16T14:22:23.243Z,8.70
2019-04-16T14:24:54.459Z,8.78
2019-04-16T14:27:25.741Z,8.78
2019-04-16T14:29:59.164Z,8.79
2019-04-16T14:32:30.194Z,8.96
2019-04-16T14:35:04.482Z,9.12
2019-04-16T14:37:35.832Z,9.28
2019-04-16T14:40:12.906Z,9.53
2019-04-16T14:42:44.135Z,9.82
2019-04-16T14:45:21.057Z,10.19
2019-04-16T14:47:52.374Z,10.76
2019-04-16T14:50:24.465Z,11.12
2019-04-16T14:52:55.858Z,11.41
2019-04-16T14:55:34.254Z,11.56
2019-04-16T14:58:27.513Z,11.77
2019-04-16T15:01:24.369Z,11.95
2019-04-16T15:04:33.830Z,12.18
2019-04-16T15:07:33.298Z,12.43
2019-04-16T15:10:33.412Z,12.69
2019-04-16T15:13:14.605Z,12.69
2019-04-16T15:16:10.993Z,13.00
2019-04-16T15:19:02.761Z,12.93
2019-04-16T15:21:51.488Z,13.03
2019-04-16T15:24:33.066Z,13.07
2019-04-16T15:27:19.680Z,13.10
2019-04-16T15:30:09.856Z,13.03
2019-04-16T15:32:58.623Z,13.03
2019-04-16T15:35:57.720Z,13.14
2019-04-16T15:38:39.650Z,13.14
2019-04-16T15:41:17.731Z,13.19
2019-04-16T15:44:23.981Z,13.22
2019-04-16T15:47:15.031Z,13.33
2019-04-16T15:49:57.107Z,13.47
2019-04-16T15:52:38.278Z,13.44
2019-04-16T15:55:27.014Z,13.13
2019-04-16T15:58:32.337Z,12.72
2019-04-16T16:01:24.125Z,12.26
2019-04-16T16:04:22.425Z,12.21
2019-04-16T16:07:13.379Z,12.55
2019-04-16T16:10:02.011Z,12.86
2019-04-16T16:12:34.070Z,13.27
2019-04-16T16:15:08.698Z,13.59
2019-04-16T16:17:39.985Z,13.73
2019-04-16T16:20:11.719Z,13.92
2019-04-16T16:22:42.895Z,14.06
2019-04-16T16:25:14.239Z,14.21
2019-04-16T16:27:47.165Z,14.36
2019-04-16T16:30:18.672Z,14.56
2019-04-16T16:32:49.868Z,14.71
2019-04-16T16:35:21.131Z,14.78
2019-04-16T16:37:52.822Z,14.98
2019-04-16T16:40:24.148Z,15.14
2019-04-16T16:42:55.488Z,15.27
2019-04-16T16:45:42.664Z,15.51
2019-04-16T16:48:13.960Z,15.73
2019-04-16T16:50:45.377Z,15.84
2019-04-16T16:53:28.698Z,16.02
2019-04-16T16:56:06.464Z,16.26
2019-04-16T16:58:44.034Z,16.51
2019-04-16T17:01:35.179Z,16.71
2019-04-16T17:04:25.570Z,16.98
2019-04-16T17:06:56.895Z,17.33
2019-04-16T17:09:35.921Z,17.61
2019-04-16T17:12:07.123Z,17.78
2019-04-16T17:14:38.432Z,18.10
2019-04-16T17:17:13.877Z,18.38
2019-04-16T17:19:42.645Z,18.58
2019-04-16T17:22:14.749Z,18.81
2019-04-16T17:24:46.830Z,19.03
2019-04-16T17:27:18.212Z,19.25
2019-04-16T17:29:50.785Z,19.51
2019-04-16T17:32:22.971Z,19.77
2019-04-16T17:34:54.496Z,20.03
2019-04-16T17:37:27.906Z,20.27
2019-04-16T17:40:05.444Z,20.51
2019-04-16T17:42:43.253Z,20.73
2019-04-16T17:45:34.622Z,20.93
2019-04-16T17:48:18.041Z,21.12
2019-04-16T17:51:18.804Z,21.36
2019-04-16T17:54:20.631Z,21.54
2019-04-16T17:57:10.708Z,21.78
2019-04-16T18:00:07.346Z,21.99
2019-04-16T18:02:53.072Z,22.16
2019-04-16T18:05:34.242Z,22.37
2019-04-16T18:08:36.489Z,22.50
2019-04-16T18:11:21.156Z,22.61
2019-04-16T18:14:04.642Z,22.75
2019-04-16T18:16:37.246Z,22.88
2019-04-16T18:19:20.306Z,23.00
2019-04-16T18:21:56.853Z,23.13
2019-04-16T18:24:43.454Z,23.27
2019-04-16T18:27:37.998Z,23.41
2019-04-16T18:30:26.744Z,23.50
2019-04-16T18:33:15.706Z,23.62
2019-04-16T18:35:52.752Z,23.72
2019-04-16T18:38:30.993Z,23.82
2019-04-16T18:41:13.270Z,23.93
2019-04-16T18:44:09.509Z,24.06
2019-04-16T18:46:51.223Z,24.18
2019-04-16T18:49:23.788Z,24.27
2019-04-16T18:51:55.071Z,24.37
2019-04-16T18:54:26.330Z,24.47
2019-04-16T18:56:57.614Z,24.57
2019-04-16T18:59:29.223Z,24.66
2019-04-16T19:02:03.548Z,24.78
2019-04-16T19:04:34.833Z,24.85
2019-04-16T19:07:06.211Z,24.96
2019-04-16T19:09:37.529Z,25.04
2019-04-16T19:12:08.743Z,25.10
2019-04-16T19:14:39.981Z,25.20
2019-04-16T19:17:11.209Z,25.28
2019-04-16T19:19:45.436Z,25.33
2019-04-16T19:22:15.379Z,25.46
2019-04-16T19:24:46.576Z,25.52
2019-04-16T19:27:17.969Z,25.59
2019-04-16T19:29:49.306Z,25.67
2019-04-16T19:32:20.448Z,25.71
2019-04-16T19:35:07.277Z,25.78
2019-04-16T19:37:24.595Z,25.83
2019-04-16T19:39:55.955Z,25.85
2019-04-16T19:42:28.819Z,25.90
2019-04-16T19:45:00.863Z,25.93
2019-04-16T19:47:35.283Z,25.99
2019-04-16T19:50:05.916Z,25.98
2019-04-16T19:52:37.423Z,26.03
2019-04-16T19:55:12.004Z,26.07
2019-04-16T19:57:41.748Z,26.08
2019-04-16T20:00:13.191Z,26.11
2019-04-16T20:02:44.619Z,26.16
2019-04-16T20:05:18.502Z,26.23
2019-04-16T20:07:49.888Z,26.28
2019-04-16T20:10:21.134Z,26.30
2019-04-16T20:12:52.619Z,26.34
2019-04-16T20:15:23.859Z,26.38
2019-04-16T20:17:56.119Z,26.41
2019-04-16T20:20:27.394Z,26.44
2019-04-16T20:22:58.673Z,26.48
2019-04-16T20:25:30.039Z,26.53
2019-04-16T20:28:01.597Z,26.55
2019-04-16T20:30:32.912Z,26.58
2019-04-16T20:33:04.211Z,26.61
2019-04-16T20:35:35.459Z,26.67
2019-04-16T20:38:06.758Z,26.68
2019-04-16T20:40:38.968Z,26.71
2019-04-16T20:43:10.322Z,26.75
2019-04-16T20:45:41.545Z,26.78
2019-04-16T20:48:13.247Z,26.82
2019-04-16T20:50:44.514Z,26.87
2019-04-16T20:53:15.641Z,26.90
2019-04-16T20:55:47.553Z,26.93
2019-04-16T20:58:19.535Z,26.99
2019-04-16T21:00:51.745Z,27.03
2019-04-16T21:03:23.008Z,27.07
2019-04-16T21:05:59.050Z,27.10
2019-04-16T21:08:27.072Z,27.12
2019-04-16T21:10:59.801Z,27.15
2019-04-16T21:13:31.250Z,27.21
2019-04-16T21:16:02.956Z,27.23
2019-04-16T21:18:34.300Z,27.29
2019-04-16T21:21:05.622Z,27.34
2019-04-16T21:23:36.799Z,27.41
2019-04-16T21:26:08.129Z,27.51
2019-04-16T21:28:44.717Z,27.56
2019-04-16T21:31:20.516Z,27.62
2019-04-16T21:34:07.517Z,27.66
2019-04-16T21:36:46.427Z,27.72
2019-04-16T21:39:31.195Z,27.78
2019-04-16T21:42:03.276Z,27.85
2019-04-16T21:44:34.941Z,27.90
2019-04-16T21:47:06.110Z,27.94
2019-04-16T21:49:39.196Z,27.98
2019-04-16T21:52:10.286Z,28.03
2019-04-16T21:54:41.481Z,28.07
2019-04-16T21:57:14.396Z,28.10
2019-04-16T21:59:45.640Z,28.15
2019-04-16T22:02:20.992Z,28.18
2019-04-16T22:04:52.489Z,28.21
2019-04-16T22:07:25.394Z,28.25
2019-04-16T22:09:56.852Z,28.32
2019-04-16T22:12:28.019Z,28.38
2019-04-16T22:14:59.310Z,28.43
2019-04-16T22:17:35.475Z,28.49
2019-04-16T22:20:04.525Z,28.59
2019-04-16T22:22:35.958Z,28.70
2019-04-16T22:25:07.225Z,28.77
2019-04-16T22:27:39.647Z,28.79
2019-04-16T22:30:11.605Z,28.89
2019-04-16T22:32:42.820Z,28.95
2019-04-16T22:35:14.062Z,28.99
2019-04-16T22:37:45.290Z,29.01
2019-04-16T22:40:33.840Z,29.02
2019-04-16T22:43:22.694Z,29.09
2019-04-16T22:46:01.751Z,29.13
2019-04-16T22:48:33.008Z,29.16
2019-04-16T22:51:09.341Z,29.15
2019-04-16T22:53:37.128Z,29.20
2019-04-16T22:56:08.465Z,29.26
2019-04-16T22:58:49.322Z,29.35
2019-04-16T23:01:22.326Z,29.42
2019-04-16T23:03:54.540Z,29.48
2019-04-16T23:06:25.724Z,29.53
2019-04-16T23:08:57.365Z,29.55
2019-04-16T23:11:28.597Z,29.57
2019-04-16T23:14:02.503Z,29.57
2019-04-16T23:16:32.901Z,29.64
2019-04-16T23:19:04.071Z,29.67
2019-04-16T23:21:35.350Z,29.69
2019-04-16T23:24:06.621Z,29.71
2019-04-16T23:26:37.898Z,29.74
2019-04-16T23:29:12.171Z,29.76
2019-04-16T23:31:42.236Z,29.77
2019-04-16T23:34:13.400Z,29.79
2019-04-16T23:36:48.449Z,29.79
2019-04-16T23:39:17.525Z,29.81
2019-04-16T23:41:49.794Z,29.83
2019-04-16T23:44:39.003Z,29.84
2019-04-16T23:47:47.249Z,29.87
2019-04-16T23:50:27.829Z,29.92
2019-04-16T23:53:09.549Z,29.94
2019-04-16T23:55:52.952Z,29.99
2019-04-16T23:58:36.127Z,30.02
